Flight Track Log - Related Links

Times and Time Zones

All times are in EST time to prevent confusion due to time zone crossing. See the N52712 flight status page for this flight to view local times or setup timezone preferences in your user account.

Time Position Orientation Groundspeed Altitude Reporting Facility
EST Latitude Longitude Course Direction KTS km/h feet Rate Location/Type
Mon 11:00:19 42.4833 -71.3167 270° West 71 132 1.900  Level KA90
Mon 11:01:19 42.5000 -71.3500 304° West 77 143 2.700 400 Climbing KA90
Mon 11:02:19 42.5000 -71.3667 270° West 85 158 2.700  Level KA90
Mon 11:03:19 42.5167 -71.4000 304° West 98 182 2.700  Level KA90
Mon 11:04:19 42.5333 -71.4333 304° West 98 182 2.700  Level KA90
Mon 11:05:00 42.4633 -71.4541 270° West  Level Estimated
Mon 11:05:19 42.5500 -71.4667 304° West 92 171 2.700  Level KA90
Mon 11:06:19 42.5667 -71.4833 324° Northwest 111 206 2.700 -150 Level KA90
Mon 11:07:19 42.5833 -71.4833 360° North 100 185 2.400 -150 Descending KA90
Mon 11:08:19 42.5667 -71.4833 180° South 87 161 2.400 -100 Level KA90
Mon 11:09:19 42.5500 -71.4833 180° South 81 150 2.200 -333 Descending KA90
Mon 11:10:25 42.5167 -71.5000 200° South 88 163 1.700 -425 Descending KA90
Mon 11:11:26 42.5000 -71.5000 180° South 81 150 1.300 -261 Descending KA90
Mon 11:12:20 42.4833 -71.5167 216° Southwest 81 150 1.200 150 Descending KA90
Mon 11:13:26 42.4500 -71.5000 160° South 106 196 1.600 619 Climbing KA90
Mon 11:14:26 42.4667 -71.5000 360° North 103 192 2.500 550 Climbing KA90
Mon 11:15:26 42.5000 -71.4833 20° North 112 208 2.700  Climbing KA90
Mon 11:16:32 42.5333 -71.4833 360° North 110 204 2.500 -105 Descending KA90
Mon 11:17:20 42.5500 -71.4833 360° North 104 193 2.500  Level KA90
Mon 11:18:26 42.5833 -71.4833 360° North 122 225 2.500  Level KA90
Mon 11:19:26 42.5667 -71.4667 144° Southeast 95 175 2.500  Level KA90
Mon 11:20:26 42.5500 -71.4833 216° Southwest 96 177 2.500  Level KA90
Mon 11:21:26 42.5667 -71.5000 324° Northwest 114 211 2.500  Level KA90
Mon 11:22:32 42.5833 -71.4833 36° Northeast 115 212 2.500 -48 Level KA90
Mon 11:23:32 42.5667 -71.4833 180° South 103 192 2.400 50 Descending KA90
Mon 11:24:32 42.5500 -71.5000 216° Southwest 104 193 2.600  Climbing KA90
Mon 11:25:26 42.5667 -71.5000 360° North 133 246 2.400 -104 Descending KA90
Mon 11:26:27 42.5833 -71.4833 36° Northeast 107 198 2.400 100 Level KA90
Mon 11:27:26 42.6000 -71.4500 56° Northeast 114 211 2.600 53 Climbing KA90
Mon 11:28:21 42.6167 -71.4167 56° Northeast 115 212 2.500 -50 Descending KA90
Mon 11:29:27 42.6333 -71.3667 66° East 110 204 2.500  Level KA90
Mon 11:30:27 42.6500 -71.3333 56° Northeast 112 208 2.500  Level KA90
Mon 11:31:27 42.6667 -71.3000 56° Northeast 114 211 2.500  Level KA90
Mon 11:32:27 42.6667 -71.2667 90° East 109 201 2.500  Level KA90
Mon 11:33:27 42.6833 -71.2167 66° East 114 211 2.500  Level KA90
Mon 11:34:21 42.7000 -71.1833 56° Northeast 120 222 2.500 70 Level KA90
Mon 11:34:53 42.7133 -71.1739 27° Northeast 117 217 2.600 64 Climbing Boston Center
Mon 11:35:55 42.7311 -71.1353 58° Northeast 114 211 2.600  Level Boston Center
Mon 11:36:56 42.7425 -71.0972 68° East 110 204 2.600  Level Boston Center
Mon 11:37:57 42.7664 -71.0697 40° Northeast 113 209 2.600  Level Boston Center
Mon 11:38:58 42.7878 -71.0400 46° Northeast 111 206 2.600 48 Level Boston Center
Mon 11:40:02 42.8167 -71.0350 North 104 193 2.700  Climbing Boston Center
Mon 11:41:02 42.8175 -71.0172 86° East 86 159 2.600 -198 Descending Boston Center
Mon 11:42:03 42.7986 -71.0319 210° Southwest 78 145 2.300 -347 Descending Boston Center
Mon 11:43:03 42.7811 -71.0478 214° Southwest 76 140 1.900 -298 Descending Boston Center
Mon 11:44:04 42.7633 -71.0658 217° Southwest 74 137 1.700 -290 Descending Boston Center
Mon 11:45:07 42.7489 -71.0900 231° Southwest 82 151 1.300 -390 Descending Boston Center
Mon 11:46:07 42.7306 -71.1092 218° Southwest 84 156 900 99 Descending Boston Center
Mon 11:47:08 42.7119 -71.1283 217° Southwest 84 156 1.500 639 Climbing Boston Center
Mon 11:48:09 42.6878 -71.1417 202° Southwest 91 169 2.200 298 Climbing Boston Center
Mon 11:49:09 42.6619 -71.1272 158° South 99 183 2.100 -50 Descending Boston Center
Mon 11:50:10 42.6333 -71.1150 163° South 105 195 2.100  Level Boston Center
Mon 11:51:13 42.6061 -71.1028 162° South 102 188 2.100 -48 Level Boston Center
Mon 11:52:14 42.5769 -71.0875 159° South 104 193 2.000  Descending Boston Center
Mon 11:53:15 42.6000 -71.0667 34° Northeast 104 193 2.100 99 Climbing Boston Center
Mon 11:54:15 42.5967 -71.0825 254° West 106 196 2.200 -47 Climbing Boston Center
Mon 11:55:22 42.5667 -71.0667 159° South 105 195 2.000 -99 Descending KA90
Mon 11:56:16 42.5333 -71.0500 160° South 101 187 2.000  Level KA90
Mon 11:57:16 42.5167 -71.0667 216° Southwest 95 175 2.000  Level KA90
Mon 11:58:16 42.4833 -71.0833 200° South 86 159 2.000  Level KA90
Mon 11:59:16 42.4667 -71.1000 216° Southwest 101 187 2.000  Level KA90
Mon 12:00:16 42.4500 -71.1333 236° Southwest 82 151 2.000  Level KA90
Mon 12:01:11 42.4667 -71.1500 324° Northwest 84 156 2.000 -250 Level KA90
Mon 12:02:16 42.4667 -71.1833 270° West 68 126 1.500 -476 Descending KA90
Mon 12:03:17 42.4667 -71.2167 270° West 78 145 1.000 -397 Descending KA90
Mon 12:04:17 42.4667 -71.2500 270° West 86 159 700 -316 Descending KA90
Mon 12:05:11 42.4667 -71.2667 270° West 55 101 400 -333 Descending KA90

Login

Don't have an account? Register now (free) for customized features, flight alerts, and more!